createdAt,value
2016-11-13T00:00:20.170Z,0
2016-11-13T00:01:19.861Z,0
2016-11-13T00:02:19.920Z,0
2016-11-13T00:03:20.246Z,0
2016-11-13T00:04:19.571Z,0
2016-11-13T00:05:19.985Z,0
2016-11-13T00:06:19.630Z,0
2016-11-13T00:07:20.215Z,0
2016-11-13T00:08:21.069Z,0
2016-11-13T00:09:20.591Z,0
2016-11-13T00:10:20.689Z,0
2016-11-13T00:11:20.288Z,0
2016-11-13T00:12:19.982Z,0
2016-11-13T00:13:20.255Z,0
2016-11-13T00:14:34.979Z,0
2016-11-13T00:15:20.294Z,0
2016-11-13T00:16:20.301Z,0
2016-11-13T00:17:21.611Z,0
2016-11-13T00:18:20.333Z,0
2016-11-13T00:19:21.295Z,0
2016-11-13T00:20:19.671Z,0
2016-11-13T00:21:20.691Z,0
2016-11-13T00:22:20.311Z,0
2016-11-13T00:23:20.366Z,0
2016-11-13T00:24:20.059Z,0
2016-11-13T00:25:20.017Z,0
2016-11-13T00:26:20.077Z,0
2016-11-13T00:27:20.128Z,0
2016-11-13T00:28:20.082Z,0
2016-11-13T00:29:20.669Z,0
2016-11-13T00:30:21.372Z,0
2016-11-13T00:31:20.378Z,0
2016-11-13T00:32:20.613Z,0
2016-11-13T00:33:20.381Z,0
2016-11-13T00:34:20.571Z,0
2016-11-13T00:35:20.176Z,0
2016-11-13T00:36:20.452Z,0
2016-11-13T00:37:20.404Z,0
2016-11-13T00:38:20.778Z,0
2016-11-13T00:39:21.802Z,0
2016-11-13T00:40:20.796Z,0
2016-11-13T00:41:21.783Z,0
2016-11-13T00:42:20.123Z,0
2016-11-13T00:43:21.090Z,0
2016-11-13T00:44:20.497Z,0
2016-11-13T00:45:20.466Z,0
2016-11-13T00:46:20.203Z,0
2016-11-13T00:47:20.589Z,0
2016-11-13T00:48:20.840Z,0
2016-11-13T00:49:20.217Z,0
2016-11-13T00:50:20.566Z,0
2016-11-13T00:51:20.594Z,0
2016-11-13T00:52:21.963Z,0
2016-11-13T00:53:20.656Z,0
2016-11-13T00:54:20.209Z,0
2016-11-13T00:55:20.255Z,0
2016-11-13T00:56:20.521Z,0
2016-11-13T00:57:20.534Z,0
2016-11-13T00:58:20.279Z,0
2016-11-13T00:59:20.596Z,0
2016-11-13T01:00:20.290Z,0
2016-11-13T01:01:20.392Z,0
2016-11-13T01:02:20.872Z,0
2016-11-13T01:03:22.385Z,0
2016-11-13T01:04:20.576Z,0
2016-11-13T01:05:19.952Z,0
2016-11-13T01:06:20.379Z,0
2016-11-13T01:07:20.276Z,0
2016-11-13T01:08:20.964Z,0
2016-11-13T01:09:20.921Z,0
2016-11-13T01:10:20.621Z,0
2016-11-13T01:11:20.670Z,0
2016-11-13T01:12:20.812Z,0
2016-11-13T01:13:20.689Z,0
2016-11-13T01:14:20.694Z,0
2016-11-13T01:15:20.432Z,0
2016-11-13T01:16:22.175Z,0
2016-11-13T01:17:20.394Z,0
2016-11-13T01:18:20.661Z,0
2016-11-13T01:19:20.458Z,0
2016-11-13T01:20:20.664Z,0
2016-11-13T01:21:21.049Z,0
2016-11-13T01:22:20.771Z,0
2016-11-13T01:23:21.059Z,0
2016-11-13T01:24:20.523Z,0
2016-11-13T01:25:21.160Z,0
2016-11-13T01:26:20.719Z,0
2016-11-13T01:27:20.825Z,0
2016-11-13T01:28:20.420Z,0
2016-11-13T01:29:20.733Z,0
2016-11-13T01:30:20.219Z,0
2016-11-13T01:31:20.437Z,0
2016-11-13T01:32:20.442Z,0
2016-11-13T01:33:21.078Z,0
2016-11-13T01:34:21.931Z,0
2016-11-13T01:35:20.872Z,0
2016-11-13T01:36:21.028Z,0
2016-11-13T01:37:20.841Z,0
2016-11-13T01:38:20.889Z,0
2016-11-13T01:39:20.934Z,0
2016-11-13T01:40:20.851Z,0
2016-11-13T01:41:20.858Z,0
2016-11-13T01:42:20.817Z,0
2016-11-13T01:43:20.559Z,0
2016-11-13T01:44:35.495Z,0
2016-11-13T01:45:21.885Z,0
2016-11-13T01:46:20.838Z,0
2016-11-13T01:47:21.097Z,0
2016-11-13T01:48:20.543Z,0
2016-11-13T01:49:20.550Z,0
2016-11-13T01:50:20.651Z,0
2016-11-13T01:51:20.568Z,0
2016-11-13T01:52:20.933Z,0
2016-11-13T01:53:20.675Z,0
2016-11-13T01:54:21.559Z,0
2016-11-13T01:55:20.946Z,0
2016-11-13T01:56:21.604Z,0
2016-11-13T01:57:21.224Z,0
2016-11-13T01:58:20.861Z,0
2016-11-13T01:59:21.022Z,0
2016-11-13T02:00:20.665Z,0
2016-11-13T02:01:20.674Z,0
2016-11-13T02:02:20.729Z,0
2016-11-13T02:03:21.262Z,0
2016-11-13T02:04:20.689Z,0
2016-11-13T02:05:21.061Z,0
2016-11-13T02:06:20.964Z,0
2016-11-13T02:07:21.421Z,0
2016-11-13T02:08:20.978Z,0
2016-11-13T02:09:21.080Z,0
2016-11-13T02:10:20.779Z,0
2016-11-13T02:11:21.047Z,0
2016-11-13T02:12:21.104Z,0
2016-11-13T02:13:21.011Z,0
2016-11-13T02:14:20.703Z,0
2016-11-13T02:15:21.027Z,0
2016-11-13T02:16:21.389Z,0
2016-11-13T02:17:21.085Z,0
2016-11-13T02:18:21.888Z,0
2016-11-13T02:19:21.099Z,0
2016-11-13T02:20:21.230Z,0
2016-11-13T02:21:20.481Z,0
2016-11-13T02:22:20.491Z,0
2016-11-13T02:23:20.496Z,0
2016-11-13T02:24:21.078Z,0
2016-11-13T02:25:21.083Z,0
2016-11-13T02:26:20.779Z,0
2016-11-13T02:27:21.149Z,0
2016-11-13T02:28:20.888Z,0
2016-11-13T02:29:22.063Z,0
2016-11-13T02:30:20.851Z,0
2016-11-13T02:31:22.637Z,0
2016-11-13T02:32:20.870Z,0
2016-11-13T02:33:20.828Z,0
2016-11-13T02:34:20.934Z,0
2016-11-13T02:35:21.198Z,0
2016-11-13T02:36:21.473Z,0
2016-11-13T02:37:21.285Z,0
2016-11-13T02:38:21.170Z,0
2016-11-13T02:39:21.545Z,0
2016-11-13T02:40:21.020Z,0
2016-11-13T02:41:21.186Z,0
2016-11-13T02:42:22.794Z,0
2016-11-13T02:43:21.247Z,0
2016-11-13T02:44:21.215Z,0
2016-11-13T02:45:20.929Z,0
2016-11-13T02:46:20.905Z,0
2016-11-13T02:47:21.272Z,0
2016-11-13T02:48:20.968Z,0
2016-11-13T02:49:20.963Z,0
2016-11-13T02:50:21.295Z,0
2016-11-13T02:51:21.035Z,0
2016-11-13T02:52:21.259Z,0
2016-11-13T02:53:22.777Z,0
2016-11-13T02:54:21.277Z,0
2016-11-13T02:55:21.477Z,0
2016-11-13T02:56:20.660Z,0
2016-11-13T02:57:21.605Z,0
2016-11-13T02:58:21.610Z,0
2016-11-13T02:59:21.357Z,0
2016-11-13T03:00:21.310Z,0
2016-11-13T03:01:21.368Z,0
2016-11-13T03:02:21.323Z,0
2016-11-13T03:03:21.067Z,0
2016-11-13T03:04:22.777Z,0
2016-11-13T03:05:21.392Z,0
2016-11-13T03:06:21.089Z,0
2016-11-13T03:07:21.412Z,0
2016-11-13T03:08:21.102Z,0
2016-11-13T03:09:21.774Z,0
2016-11-13T03:10:21.474Z,0
2016-11-13T03:11:21.480Z,0
2016-11-13T03:12:21.072Z,0
2016-11-13T03:13:21.117Z,0
2016-11-13T03:14:21.185Z,0
2016-11-13T03:15:22.908Z,0
2016-11-13T03:16:21.777Z,0
2016-11-13T03:17:21.418Z,0
2016-11-13T03:18:21.479Z,0
2016-11-13T03:19:21.434Z,0
2016-11-13T03:20:21.747Z,0
2016-11-13T03:21:21.493Z,0
2016-11-13T03:22:20.931Z,0
2016-11-13T03:23:21.772Z,0
2016-11-13T03:24:21.470Z,0
2016-11-13T03:25:21.523Z,0
2016-11-13T03:26:23.089Z,0
2016-11-13T03:27:21.174Z,0
2016-11-13T03:28:21.227Z,0
2016-11-13T03:29:21.547Z,0
2016-11-13T03:30:21.240Z,0
2016-11-13T03:31:21.230Z,0
2016-11-13T03:32:21.253Z,0
2016-11-13T03:33:21.833Z,0
2016-11-13T03:34:21.267Z,0
2016-11-13T03:35:21.704Z,0
2016-11-13T03:36:21.902Z,0
2016-11-13T03:37:23.461Z,0
2016-11-13T03:38:21.914Z,0
2016-11-13T03:39:21.558Z,0
2016-11-13T03:40:21.621Z,0
2016-11-13T03:41:21.261Z,0
2016-11-13T03:42:21.633Z,0
2016-11-13T03:43:21.018Z,0
2016-11-13T03:44:21.280Z,0
2016-11-13T03:45:21.287Z,0
2016-11-13T03:46:22.043Z,0
2016-11-13T03:47:21.665Z,0
2016-11-13T03:48:21.676Z,0
2016-11-13T03:49:21.006Z,0
2016-11-13T03:50:21.371Z,0
2016-11-13T03:51:21.642Z,0
2016-11-13T03:52:21.742Z,0
2016-11-13T03:53:21.754Z,0
2016-11-13T03:54:21.709Z,0
2016-11-13T03:55:22.027Z,0
2016-11-13T03:56:21.981Z,0
2016-11-13T03:57:22.387Z,0
2016-11-13T03:58:21.726Z,0
2016-11-13T03:59:21.736Z,0
2016-11-13T04:00:21.695Z,0
2016-11-13T04:01:21.111Z,0
2016-11-13T04:02:21.082Z,0
2016-11-13T04:03:21.085Z,0
2016-11-13T04:04:21.141Z,0
2016-11-13T04:05:22.039Z,0
2016-11-13T04:06:21.156Z,0
2016-11-13T04:07:21.840Z,0
2016-11-13T04:08:22.799Z,0
2016-11-13T04:09:21.439Z,0
2016-11-13T04:10:21.940Z,0
2016-11-13T04:11:22.126Z,0
2016-11-13T04:12:21.507Z,0
2016-11-13T04:13:21.495Z,0
2016-11-13T04:14:22.097Z,0
2016-11-13T04:15:21.788Z,0
2016-11-13T04:16:22.246Z,0
2016-11-13T04:17:22.163Z,0
2016-11-13T04:18:21.498Z,0
2016-11-13T04:19:22.870Z,0
2016-11-13T04:20:21.508Z,0
2016-11-13T04:21:21.976Z,0
2016-11-13T04:22:21.877Z,0
2016-11-13T04:23:21.893Z,0
2016-11-13T04:24:22.207Z,0
2016-11-13T04:25:22.162Z,0
2016-11-13T04:26:21.547Z,0
2016-11-13T04:27:21.341Z,0
2016-11-13T04:28:21.557Z,0
2016-11-13T04:29:21.563Z,0
2016-11-13T04:30:23.166Z,0
2016-11-13T04:31:22.304Z,0
2016-11-13T04:32:21.985Z,0
2016-11-13T04:33:21.591Z,0
2016-11-13T04:34:22.222Z,0
2016-11-13T04:35:21.616Z,0
2016-11-13T04:36:21.923Z,0
2016-11-13T04:37:22.544Z,0
2016-11-13T04:38:21.619Z,0
2016-11-13T04:39:22.353Z,0
2016-11-13T04:40:21.945Z,0
2016-11-13T04:41:23.568Z,0
2016-11-13T04:42:21.440Z,0
2016-11-13T04:43:22.366Z,0
2016-11-13T04:44:22.021Z,0
2016-11-13T04:45:21.718Z,0
2016-11-13T04:46:21.671Z,0
2016-11-13T04:47:22.043Z,0
2016-11-13T04:48:21.996Z,0
2016-11-13T04:49:22.058Z,0
2016-11-13T04:50:22.062Z,0
2016-11-13T04:51:22.016Z,0
2016-11-13T04:52:23.577Z,0
2016-11-13T04:53:22.031Z,0
2016-11-13T04:54:22.830Z,0
2016-11-13T04:55:22.043Z,0
2016-11-13T04:56:22.097Z,0
2016-11-13T04:57:22.372Z,0
2016-11-13T04:58:22.116Z,0
2016-11-13T04:59:22.419Z,0
2016-11-13T05:00:22.128Z,0
2016-11-13T05:01:22.131Z,0
2016-11-13T05:02:22.088Z,0
2016-11-13T05:03:23.837Z,0
2016-11-13T05:04:21.477Z,0
2016-11-13T05:05:22.805Z,0
2016-11-13T05:06:22.117Z,0
2016-11-13T05:07:21.858Z,0
2016-11-13T05:08:22.442Z,0
2016-11-13T05:09:22.142Z,0
2016-11-13T05:10:22.149Z,0
2016-11-13T05:11:22.197Z,0
2016-11-13T05:12:22.520Z,0
2016-11-13T05:13:21.945Z,0
2016-11-13T05:14:21.856Z,0
2016-11-13T05:15:21.964Z,0
2016-11-13T05:16:23.276Z,0
2016-11-13T05:17:21.869Z,0
2016-11-13T05:18:21.934Z,0
2016-11-13T05:19:22.509Z,0
2016-11-13T05:20:21.889Z,0
2016-11-13T05:21:22.208Z,0
2016-11-13T05:22:21.951Z,0
2016-11-13T05:23:21.961Z,0
2016-11-13T05:24:21.956Z,0
2016-11-13T05:25:21.718Z,0
2016-11-13T05:26:22.558Z,0
2016-11-13T05:27:23.853Z,0
2016-11-13T05:28:22.368Z,0
2016-11-13T05:29:22.261Z,0
2016-11-13T05:30:22.316Z,0
2016-11-13T05:31:22.273Z,0
2016-11-13T05:32:21.968Z,0
2016-11-13T05:33:22.610Z,0
2016-11-13T05:34:22.028Z,0
2016-11-13T05:35:22.349Z,0
2016-11-13T05:36:22.399Z,0
2016-11-13T05:37:21.996Z,0
2016-11-13T05:38:23.929Z,0
2016-11-13T05:39:21.824Z,0
2016-11-13T05:40:22.691Z,0
2016-11-13T05:41:22.021Z,0
2016-11-13T05:42:22.699Z,0
2016-11-13T05:43:22.044Z,0
2016-11-13T05:44:22.145Z,0
2016-11-13T05:45:22.461Z,0
2016-11-13T05:46:22.558Z,0
2016-11-13T05:47:22.371Z,0
2016-11-13T05:48:22.065Z,0
2016-11-13T05:49:22.086Z,0
2016-11-13T05:50:22.478Z,0
2016-11-13T05:51:22.189Z,0
2016-11-13T05:52:21.878Z,0
2016-11-13T05:53:22.100Z,0
2016-11-13T05:54:22.728Z,0
2016-11-13T05:55:22.421Z,0
2016-11-13T05:56:21.958Z,0
2016-11-13T05:57:22.485Z,0
2016-11-13T05:58:22.940Z,0
2016-11-13T05:59:22.196Z,0
2016-11-13T06:00:24.441Z,0
2016-11-13T06:01:22.562Z,0
2016-11-13T06:02:22.469Z,0
2016-11-13T06:03:22.826Z,0
2016-11-13T06:04:22.537Z,0
2016-11-13T06:05:21.914Z,0
2016-11-13T06:06:22.547Z,0
2016-11-13T06:07:21.930Z,0
2016-11-13T06:08:21.885Z,0
2016-11-13T06:09:22.916Z,0
2016-11-13T06:10:22.568Z,0
2016-11-13T06:11:24.492Z,0
2016-11-13T06:12:22.009Z,0
2016-11-13T06:13:22.591Z,0
2016-11-13T06:14:22.598Z,0
2016-11-13T06:15:22.605Z,0
2016-11-13T06:16:22.565Z,0
2016-11-13T06:17:22.315Z,0
2016-11-13T06:18:23.034Z,0
2016-11-13T06:19:22.271Z,0
2016-11-13T06:20:22.642Z,0
2016-11-13T06:21:22.954Z,0
2016-11-13T06:22:22.364Z,0
2016-11-13T06:23:22.030Z,0
2016-11-13T06:24:22.646Z,0
2016-11-13T06:25:22.716Z,0
2016-11-13T06:26:22.325Z,0
2016-11-13T06:27:22.711Z,0
2016-11-13T06:28:22.743Z,0
2016-11-13T06:29:22.640Z,4
2016-11-13T06:30:23.013Z,4
2016-11-13T06:31:23.369Z,4
2016-11-13T06:32:22.665Z,0
2016-11-13T06:33:22.714Z,4
2016-11-13T06:34:22.102Z,4
2016-11-13T06:35:22.735Z,4
2016-11-13T06:36:22.379Z,4
2016-11-13T06:37:22.381Z,4
2016-11-13T06:38:22.700Z,4
2016-11-13T06:39:22.444Z,4
2016-11-13T06:40:22.769Z,4
2016-11-13T06:41:22.404Z,8
2016-11-13T06:42:23.643Z,8
2016-11-13T06:43:23.050Z,8
2016-11-13T06:44:53.384Z,8
2016-11-13T06:45:22.805Z,12
2016-11-13T06:46:22.440Z,8
2016-11-13T06:47:22.135Z,12
2016-11-13T06:48:22.451Z,12
2016-11-13T06:49:23.086Z,12
2016-11-13T06:50:23.145Z,16
2016-11-13T06:51:23.096Z,16
2016-11-13T06:52:23.339Z,16
2016-11-13T06:53:23.863Z,20
2016-11-13T06:54:22.805Z,20
2016-11-13T06:55:23.245Z,24
2016-11-13T06:56:22.244Z,24
2016-11-13T06:57:22.872Z,24
2016-11-13T06:58:22.829Z,24
2016-11-13T06:59:22.627Z,28
2016-11-13T07:00:22.843Z,28
2016-11-13T07:01:22.851Z,28
2016-11-13T07:02:23.214Z,32
2016-11-13T07:03:23.175Z,36
2016-11-13T07:04:24.325Z,36
2016-11-13T07:05:22.562Z,40
2016-11-13T07:06:23.522Z,44
2016-11-13T07:07:22.889Z,44
2016-11-13T07:08:23.202Z,44
2016-11-13T07:09:22.900Z,48
2016-11-13T07:10:22.688Z,52
2016-11-13T07:11:22.612Z,56
2016-11-13T07:12:23.002Z,56
2016-11-13T07:13:22.927Z,60
2016-11-13T07:14:23.032Z,64
2016-11-13T07:15:24.157Z,68
2016-11-13T07:16:22.946Z,76
2016-11-13T07:17:23.788Z,80
2016-11-13T07:18:23.006Z,84
2016-11-13T07:19:23.113Z,88
2016-11-13T07:20:23.020Z,96
2016-11-13T07:21:23.007Z,96
2016-11-13T07:22:22.983Z,100
2016-11-13T07:23:22.992Z,104
2016-11-13T07:24:22.991Z,112
2016-11-13T07:25:22.376Z,116
2016-11-13T07:26:24.602Z,128
2016-11-13T07:27:23.012Z,136
2016-11-13T07:28:23.971Z,144
2016-11-13T07:29:23.027Z,152
2016-11-13T07:30:22.822Z,160
2016-11-13T07:31:22.466Z,168
2016-11-13T07:32:23.097Z,172
2016-11-13T07:33:22.740Z,176
2016-11-13T07:34:23.116Z,176
2016-11-13T07:35:22.442Z,184
2016-11-13T07:36:22.451Z,184
2016-11-13T07:37:24.616Z,188
2016-11-13T07:38:23.448Z,184
2016-11-13T07:39:24.365Z,184
2016-11-13T07:40:23.247Z,184
2016-11-13T07:41:22.791Z,188
2016-11-13T07:42:23.328Z,192
2016-11-13T07:43:22.814Z,200
2016-11-13T07:44:23.488Z,208
2016-11-13T07:45:23.132Z,216
2016-11-13T07:46:23.190Z,224
2016-11-13T07:47:23.146Z,228
2016-11-13T07:48:22.939Z,228
2016-11-13T07:49:22.894Z,228
2016-11-13T07:50:24.763Z,228
2016-11-13T07:51:23.175Z,228
2016-11-13T07:52:22.914Z,232
2016-11-13T07:53:23.554Z,232
2016-11-13T07:54:23.240Z,232
2016-11-13T07:55:23.038Z,228
2016-11-13T07:56:23.517Z,228
2016-11-13T07:57:23.257Z,232
2016-11-13T07:58:23.314Z,236
2016-11-13T07:59:23.224Z,240
2016-11-13T08:00:23.290Z,244
2016-11-13T08:01:24.886Z,244
2016-11-13T08:02:23.558Z,244
2016-11-13T08:03:23.557Z,244
2016-11-13T08:04:23.618Z,240
2016-11-13T08:05:23.366Z,240
2016-11-13T08:06:23.321Z,240
2016-11-13T08:07:22.746Z,236
2016-11-13T08:08:23.719Z,232
2016-11-13T08:09:23.598Z,232
2016-11-13T08:10:23.931Z,232
2016-11-13T08:11:23.431Z,232
2016-11-13T08:12:22.940Z,236
2016-11-13T08:13:22.688Z,236
2016-11-13T08:14:23.420Z,240
2016-11-13T08:15:23.465Z,244
2016-11-13T08:16:23.695Z,240
2016-11-13T08:17:23.160Z,240
2016-11-13T08:18:23.345Z,240
2016-11-13T08:19:24.555Z,240
2016-11-13T08:20:23.978Z,236
2016-11-13T08:21:24.410Z,228
2016-11-13T08:22:23.470Z,228
2016-11-13T08:23:23.579Z,220
2016-11-13T08:24:23.434Z,216
2016-11-13T08:25:23.780Z,216
2016-11-13T08:26:23.111Z,220
2016-11-13T08:27:23.407Z,228
2016-11-13T08:28:22.883Z,236
2016-11-13T08:29:23.416Z,244
2016-11-13T08:30:24.446Z,248
2016-11-13T08:31:22.885Z,248
2016-11-13T08:32:24.663Z,252
2016-11-13T08:33:23.516Z,256
2016-11-13T08:34:23.435Z,256
2016-11-13T08:35:23.814Z,260
2016-11-13T08:36:23.146Z,260
2016-11-13T08:37:23.151Z,264
2016-11-13T08:38:23.473Z,260
2016-11-13T08:39:23.477Z,260
2016-11-13T08:40:23.483Z,260
2016-11-13T08:41:24.469Z,260
2016-11-13T08:42:23.823Z,260
2016-11-13T08:43:24.756Z,260
2016-11-13T08:44:23.198Z,264
2016-11-13T08:45:23.643Z,264
2016-11-13T08:46:23.213Z,268
2016-11-13T08:47:22.952Z,272
2016-11-13T08:48:22.961Z,276
2016-11-13T08:49:23.644Z,280
2016-11-13T08:50:23.591Z,288
2016-11-13T08:51:23.249Z,288
2016-11-13T08:52:23.400Z,292
2016-11-13T08:53:23.312Z,292
2016-11-13T08:54:25.030Z,288
2016-11-13T08:55:23.583Z,292
2016-11-13T08:56:24.253Z,292
2016-11-13T08:57:23.646Z,292
2016-11-13T08:58:23.025Z,288
2016-11-13T08:59:23.298Z,288
2016-11-13T09:00:23.924Z,288
2016-11-13T09:01:23.726Z,288
2016-11-13T09:02:23.994Z,292
2016-11-13T09:03:23.381Z,292
2016-11-13T09:04:24.061Z,292
2016-11-13T09:05:25.381Z,300
2016-11-13T09:06:23.655Z,300
2016-11-13T09:07:24.645Z,304
2016-11-13T09:08:23.409Z,304
2016-11-13T09:09:24.032Z,312
2016-11-13T09:10:23.726Z,316
2016-11-13T09:11:23.685Z,324
2016-11-13T09:12:23.433Z,332
2016-11-13T09:13:23.747Z,340
2016-11-13T09:14:23.855Z,348
2016-11-13T09:15:24.071Z,356
2016-11-13T09:16:24.130Z,364
2016-11-13T09:17:23.101Z,372
2016-11-13T09:18:23.107Z,376
2016-11-13T09:19:23.423Z,384
2016-11-13T09:20:23.588Z,388
2016-11-13T09:21:24.509Z,400
2016-11-13T09:22:23.495Z,412
2016-11-13T09:23:23.762Z,416
2016-11-13T09:24:23.490Z,428
2016-11-13T09:25:24.578Z,444
2016-11-13T09:26:24.199Z,456
2016-11-13T09:27:23.978Z,468
2016-11-13T09:28:23.794Z,476
2016-11-13T09:29:23.519Z,492
2016-11-13T09:30:23.860Z,508
2016-11-13T09:31:23.880Z,524
2016-11-13T09:32:23.872Z,540
2016-11-13T09:33:23.825Z,552
2016-11-13T09:34:24.394Z,564
2016-11-13T09:35:23.840Z,576
2016-11-13T09:36:24.545Z,592
2016-11-13T09:37:23.849Z,608
2016-11-13T09:38:24.366Z,624
2016-11-13T09:39:23.909Z,648
2016-11-13T09:40:24.189Z,660
2016-11-13T09:41:23.881Z,676
2016-11-13T09:42:23.880Z,680
2016-11-13T09:43:23.673Z,692
2016-11-13T09:44:23.586Z,700
2016-11-13T09:45:23.903Z,712
2016-11-13T09:46:23.905Z,728
2016-11-13T09:47:24.573Z,744
2016-11-13T09:48:23.984Z,760
2016-11-13T09:49:24.735Z,776
2016-11-13T09:50:23.980Z,792
2016-11-13T09:51:24.239Z,808
2016-11-13T09:52:23.735Z,828
2016-11-13T09:53:23.329Z,848
2016-11-13T09:54:23.645Z,868
2016-11-13T09:55:23.961Z,892
2016-11-13T09:56:23.711Z,920
2016-11-13T09:57:23.503Z,948
2016-11-13T09:58:24.303Z,976
2016-11-13T09:59:23.717Z,1004
2016-11-13T10:00:25.350Z,1028
2016-11-13T10:01:24.313Z,1056
2016-11-13T10:02:24.742Z,1068
2016-11-13T10:03:24.168Z,1080
2016-11-13T10:04:23.410Z,1084
2016-11-13T10:05:23.765Z,1084
2016-11-13T10:06:24.031Z,1076
2016-11-13T10:07:24.407Z,1056
2016-11-13T10:08:23.818Z,1028
2016-11-13T10:09:24.416Z,992
2016-11-13T10:10:24.373Z,960
2016-11-13T10:11:25.618Z,924
2016-11-13T10:12:24.381Z,896
2016-11-13T10:13:24.891Z,864
2016-11-13T10:14:24.284Z,840
2016-11-13T10:15:23.783Z,824
2016-11-13T10:16:24.148Z,816
2016-11-13T10:17:23.477Z,804
2016-11-13T10:18:23.484Z,792
2016-11-13T10:19:24.479Z,780
2016-11-13T10:20:23.842Z,768
2016-11-13T10:21:23.814Z,748
2016-11-13T10:22:26.002Z,732
2016-11-13T10:23:24.143Z,708
2016-11-13T10:24:25.256Z,688
2016-11-13T10:25:24.192Z,668
2016-11-13T10:26:24.265Z,656
2016-11-13T10:27:24.218Z,644
2016-11-13T10:28:24.476Z,628
2016-11-13T10:29:24.177Z,620
2016-11-13T10:30:24.235Z,608
2016-11-13T10:31:24.545Z,604
2016-11-13T10:32:24.029Z,604
2016-11-13T10:33:23.930Z,604
2016-11-13T10:34:24.319Z,608
2016-11-13T10:35:24.220Z,612
2016-11-13T10:36:24.223Z,624
2016-11-13T10:37:23.969Z,636
2016-11-13T10:38:24.036Z,644
2016-11-13T10:39:23.983Z,664
2016-11-13T10:40:23.683Z,680
2016-11-13T10:41:24.307Z,700
2016-11-13T10:42:25.273Z,720
2016-11-13T10:43:23.743Z,744
2016-11-13T10:44:24.620Z,768
2016-11-13T10:45:24.038Z,788
2016-11-13T10:46:24.030Z,812
2016-11-13T10:47:24.401Z,836
2016-11-13T10:48:24.303Z,860
2016-11-13T10:49:24.001Z,884
2016-11-13T10:50:24.419Z,900
2016-11-13T10:51:24.353Z,916
2016-11-13T10:52:24.066Z,928
2016-11-13T10:53:25.227Z,944
2016-11-13T10:54:24.714Z,956
2016-11-13T10:55:24.941Z,976
2016-11-13T10:56:24.049Z,992
2016-11-13T10:57:24.105Z,1012
2016-11-13T10:58:24.419Z,1032
2016-11-13T10:59:24.383Z,1052
2016-11-13T11:00:24.432Z,1080
2016-11-13T11:01:24.523Z,1104
2016-11-13T11:02:24.496Z,1124
2016-11-13T11:03:24.715Z,1136
2016-11-13T11:04:25.912Z,1136
2016-11-13T11:05:24.105Z,1148
2016-11-13T11:06:25.371Z,1152
2016-11-13T11:07:24.792Z,1148
2016-11-13T11:08:24.130Z,1140
2016-11-13T11:09:24.175Z,1128
2016-11-13T11:10:23.827Z,1120
2016-11-13T11:11:23.828Z,1104
2016-11-13T11:12:24.820Z,1088
2016-11-13T11:13:24.206Z,1076
2016-11-13T11:14:24.161Z,1064
2016-11-13T11:15:26.352Z,1048
2016-11-13T11:16:23.861Z,1040
2016-11-13T11:17:25.831Z,1024
2016-11-13T11:18:24.284Z,1004
2016-11-13T11:19:23.977Z,984
2016-11-13T11:20:24.196Z,964
2016-11-13T11:21:24.516Z,940
2016-11-13T11:22:24.210Z,920
2016-11-13T11:23:24.322Z,896
2016-11-13T11:24:24.535Z,880
2016-11-13T11:25:24.281Z,860
2016-11-13T11:26:24.859Z,840
2016-11-13T11:27:24.866Z,824
2016-11-13T11:28:26.561Z,804
2016-11-13T11:29:24.617Z,788
2016-11-13T11:30:24.261Z,776
2016-11-13T11:31:24.323Z,764
2016-11-13T11:32:24.631Z,756
2016-11-13T11:33:24.957Z,752
2016-11-13T11:34:24.913Z,752
2016-11-13T11:35:24.755Z,756
2016-11-13T11:36:24.295Z,756
2016-11-13T11:37:24.970Z,764
2016-11-13T11:38:24.725Z,772
2016-11-13T11:39:24.632Z,772
2016-11-13T11:40:24.789Z,772
2016-11-13T11:41:24.338Z,772
2016-11-13T11:42:24.654Z,768
2016-11-13T11:43:24.337Z,756
2016-11-13T11:44:25.021Z,748
2016-11-13T11:45:24.983Z,740
2016-11-13T11:46:25.038Z,728
2016-11-13T11:47:24.054Z,720
2016-11-13T11:48:25.522Z,712
2016-11-13T11:49:24.792Z,704
2016-11-13T11:50:24.782Z,696
2016-11-13T11:51:24.750Z,688
2016-11-13T11:52:24.765Z,680
2016-11-13T11:53:24.405Z,676
2016-11-13T11:54:24.143Z,668
2016-11-13T11:55:24.102Z,664
2016-11-13T11:56:24.787Z,664
2016-11-13T11:57:24.810Z,664
2016-11-13T11:58:24.479Z,660
2016-11-13T11:59:25.717Z,660
2016-11-13T12:00:24.760Z,656
2016-11-13T12:01:24.601Z,656
2016-11-13T12:02:24.560Z,652
2016-11-13T12:03:24.849Z,648
2016-11-13T12:04:25.195Z,644
2016-11-13T12:05:24.483Z,644
2016-11-13T12:06:25.210Z,632
2016-11-13T12:07:24.548Z,624
2016-11-13T12:08:24.549Z,612
2016-11-13T12:09:24.586Z,596
2016-11-13T12:10:26.230Z,580
2016-11-13T12:11:24.878Z,568
2016-11-13T12:12:25.532Z,552
2016-11-13T12:13:24.559Z,540
2016-11-13T12:14:24.843Z,528
2016-11-13T12:15:24.855Z,520
2016-11-13T12:16:24.598Z,512
2016-11-13T12:17:25.258Z,504
2016-11-13T12:18:24.872Z,500
2016-11-13T12:19:25.293Z,492
2016-11-13T12:20:24.618Z,488
2016-11-13T12:21:26.916Z,484
2016-11-13T12:22:24.590Z,480
2016-11-13T12:23:26.149Z,472
2016-11-13T12:24:24.908Z,472
2016-11-13T12:25:24.649Z,464
2016-11-13T12:26:24.655Z,460
2016-11-13T12:27:24.925Z,448
2016-11-13T12:28:24.931Z,444
2016-11-13T12:29:25.299Z,432
2016-11-13T12:30:24.948Z,424
2016-11-13T12:31:25.001Z,416
2016-11-13T12:32:24.955Z,408
2016-11-13T12:33:25.277Z,400
2016-11-13T12:34:26.386Z,388
2016-11-13T12:35:24.697Z,384
2016-11-13T12:36:25.031Z,380
2016-11-13T12:37:25.303Z,368
2016-11-13T12:38:24.731Z,360
2016-11-13T12:39:25.319Z,396
2016-11-13T12:40:25.016Z,416
2016-11-13T12:41:25.012Z,416
2016-11-13T12:42:24.754Z,408
2016-11-13T12:43:25.264Z,400
2016-11-13T12:44:25.042Z,392
2016-11-13T12:45:26.810Z,384
2016-11-13T12:46:25.498Z,376
2016-11-13T12:47:25.098Z,368
2016-11-13T12:48:25.417Z,360
2016-11-13T12:49:24.754Z,356
2016-11-13T12:50:25.118Z,348
2016-11-13T12:51:25.074Z,340
2016-11-13T12:52:25.445Z,336
2016-11-13T12:53:25.134Z,332
2016-11-13T12:54:25.735Z,332
2016-11-13T12:55:24.837Z,328
2016-11-13T12:56:25.073Z,324
2016-11-13T12:57:24.898Z,324
2016-11-13T12:58:24.803Z,324
2016-11-13T12:59:24.822Z,324
2016-11-13T13:00:24.815Z,324
2016-11-13T13:01:25.246Z,324
2016-11-13T13:02:25.450Z,324
2016-11-13T13:03:25.510Z,324
2016-11-13T13:04:24.841Z,320
2016-11-13T13:05:26.173Z,320
2016-11-13T13:06:24.904Z,320
2016-11-13T13:07:25.508Z,320
2016-11-13T13:08:24.964Z,316
2016-11-13T13:09:25.185Z,316
2016-11-13T13:10:25.189Z,312
2016-11-13T13:11:25.245Z,312
2016-11-13T13:12:25.565Z,308
2016-11-13T13:13:25.262Z,304
2016-11-13T13:14:24.642Z,300
2016-11-13T13:15:24.957Z,296
2016-11-13T13:16:26.785Z,292
2016-11-13T13:17:24.978Z,288
2016-11-13T13:18:26.179Z,288
2016-11-13T13:19:25.559Z,284
2016-11-13T13:20:25.251Z,276
2016-11-13T13:21:25.260Z,276
2016-11-13T13:22:24.639Z,276
2016-11-13T13:23:25.320Z,272
2016-11-13T13:24:24.967Z,268
2016-11-13T13:25:25.074Z,268
2016-11-13T13:26:24.984Z,272
2016-11-13T13:27:24.982Z,268
2016-11-13T13:28:25.405Z,268
2016-11-13T13:29:26.559Z,272
2016-11-13T13:30:24.826Z,272
2016-11-13T13:31:25.367Z,272
2016-11-13T13:32:25.375Z,272
2016-11-13T13:33:25.384Z,276
2016-11-13T13:34:25.393Z,276
2016-11-13T13:35:25.773Z,280
2016-11-13T13:36:25.360Z,280
2016-11-13T13:37:25.096Z,280
2016-11-13T13:38:25.110Z,284
2016-11-13T13:39:25.057Z,280
2016-11-13T13:40:26.882Z,284
2016-11-13T13:41:25.431Z,284
2016-11-13T13:42:25.446Z,284
2016-11-13T13:43:25.134Z,284
2016-11-13T13:44:25.094Z,284
2016-11-13T13:45:25.460Z,284
2016-11-13T13:46:25.564Z,280
2016-11-13T13:47:26.219Z,280
2016-11-13T13:48:24.803Z,276
2016-11-13T13:49:25.832Z,276
2016-11-13T13:50:25.159Z,276
2016-11-13T13:51:25.182Z,276
2016-11-13T13:52:25.185Z,272
2016-11-13T13:53:25.508Z,272
2016-11-13T13:54:25.158Z,272
2016-11-13T13:55:25.157Z,264
2016-11-13T13:56:25.789Z,264
2016-11-13T13:57:25.849Z,260
2016-11-13T13:58:26.702Z,256
2016-11-13T13:59:25.494Z,252
2016-11-13T14:00:26.204Z,248
2016-11-13T14:01:25.517Z,240
2016-11-13T14:02:25.875Z,240
2016-11-13T14:03:25.255Z,236
2016-11-13T14:04:25.311Z,236
2016-11-13T14:05:25.254Z,236
2016-11-13T14:06:25.326Z,232
2016-11-13T14:07:25.597Z,228
2016-11-13T14:08:25.249Z,224
2016-11-13T14:09:26.716Z,224
2016-11-13T14:10:24.986Z,220
2016-11-13T14:11:26.738Z,220
2016-11-13T14:12:26.075Z,212
2016-11-13T14:13:25.930Z,212
2016-11-13T14:14:25.638Z,212